createdAt,value
2023-02-08T00:02:20.872Z,57.43
2023-02-08T00:04:49.176Z,54.27
2023-02-08T00:07:16.964Z,54.40
2023-02-08T00:09:44.606Z,56.70
2023-02-08T00:12:12.258Z,55.73
2023-02-08T00:14:41.450Z,57.17
2023-02-08T00:17:09.246Z,58.93
2023-02-08T00:19:36.934Z,55.20
2023-02-08T00:22:04.646Z,55.23
2023-02-08T00:24:32.367Z,51.90
2023-02-08T00:27:00.035Z,50.00
2023-02-08T00:29:27.755Z,49.67
2023-02-08T00:31:56.824Z,51.57
2023-02-08T00:34:24.511Z,55.37
2023-02-08T00:36:52.898Z,52.27
2023-02-08T00:39:21.133Z,52.23
2023-02-08T00:41:48.804Z,53.47
2023-02-08T00:44:16.481Z,49.47
2023-02-08T00:46:45.781Z,52.23
2023-02-08T00:49:14.760Z,53.83
2023-02-08T00:51:42.382Z,53.87
2023-02-08T00:54:14.687Z,51.93
2023-02-08T00:56:42.470Z,53.53
2023-02-08T00:59:10.216Z,45.43
2023-02-08T01:01:38.723Z,47.67
2023-02-08T01:04:06.583Z,49.87
2023-02-08T01:06:35.621Z,50.27
2023-02-08T01:09:03.335Z,47.53
2023-02-08T01:11:31.022Z,50.43
2023-02-08T01:14:00.030Z,51.37
2023-02-08T01:16:29.703Z,47.10
2023-02-08T01:18:59.300Z,47.50
2023-02-08T01:21:28.559Z,53.40
2023-02-08T01:23:58.119Z,49.37
2023-02-08T01:26:26.792Z,50.60
2023-02-08T01:28:55.433Z,50.43
2023-02-08T01:31:25.797Z,48.50
2023-02-08T01:33:53.518Z,50.17
2023-02-08T01:36:21.162Z,46.77
2023-02-08T01:38:48.976Z,43.80
2023-02-08T01:41:21.358Z,45.03
2023-02-08T01:44:07.721Z,46.60
2023-02-08T01:46:36.708Z,45.10
2023-02-08T01:49:07.702Z,47.07
2023-02-08T01:51:39.382Z,41.33
2023-02-08T01:54:08.856Z,46.03
2023-02-08T01:56:41.091Z,44.30
2023-02-08T01:59:11.972Z,44.30
2023-02-08T02:01:40.118Z,41.37
2023-02-08T02:04:08.412Z,44.23
2023-02-08T02:06:38.889Z,44.40
2023-02-08T02:09:13.322Z,44.63
2023-02-08T02:11:42.754Z,46.80
2023-02-08T02:14:10.927Z,45.90
2023-02-08T02:16:39.348Z,43.10
2023-02-08T02:19:12.191Z,40.50
2023-02-08T02:21:58.974Z,46.30
2023-02-08T02:25:06.388Z,44.03
2023-02-08T02:28:01.074Z,44.23
2023-02-08T02:31:01.822Z,43.13
2023-02-08T02:33:37.140Z,48.50
2023-02-08T02:36:10.384Z,47.57
2023-02-08T02:38:45.385Z,43.53
2023-02-08T02:41:39.858Z,47.33
2023-02-08T02:44:12.720Z,43.33
2023-02-08T02:46:43.279Z,48.30
2023-02-08T02:49:18.525Z,41.20
2023-02-08T02:51:49.474Z,46.87
2023-02-08T02:54:20.766Z,46.13
2023-02-08T02:56:50.914Z,46.63
2023-02-08T02:59:19.686Z,46.20
2023-02-08T03:01:47.826Z,44.30
2023-02-08T03:04:18.603Z,40.17
2023-02-08T03:07:00.516Z,45.87
2023-02-08T03:09:48.591Z,45.53
2023-02-08T03:12:28.191Z,44.63
2023-02-08T03:14:59.673Z,40.17
2023-02-08T03:17:45.101Z,40.67
2023-02-08T03:20:17.632Z,43.50
2023-02-08T03:22:52.696Z,38.73
2023-02-08T03:25:23.807Z,44.43
2023-02-08T03:27:58.478Z,39.53
2023-02-08T03:30:29.626Z,43.93
2023-02-08T03:33:01.472Z,41.80
2023-02-08T03:35:32.869Z,40.83
2023-02-08T03:38:03.054Z,39.57
2023-02-08T03:40:35.137Z,39.93
2023-02-08T03:43:09.079Z,39.67
2023-02-08T03:45:40.789Z,42.27
2023-02-08T03:48:10.541Z,39.33
2023-02-08T03:50:41.463Z,40.27
2023-02-08T03:53:10.190Z,37.80
2023-02-08T03:55:38.751Z,38.80
2023-02-08T03:58:12.706Z,39.10
2023-02-08T04:00:42.822Z,38.70
2023-02-08T04:03:15.711Z,38.77
2023-02-08T04:05:45.476Z,41.80
2023-02-08T04:08:13.378Z,40.97
2023-02-08T04:10:41.484Z,43.43
2023-02-08T04:13:09.375Z,38.80
2023-02-08T04:15:37.137Z,41.47
2023-02-08T04:18:05.332Z,38.17
2023-02-08T04:20:33.353Z,41.73
2023-02-08T04:23:02.392Z,39.23
2023-02-08T04:25:30.074Z,41.87
2023-02-08T04:27:58.266Z,40.60
2023-02-08T04:30:26.339Z,36.73
2023-02-08T04:32:54.372Z,40.10
2023-02-08T04:35:22.025Z,40.33
2023-02-08T04:37:49.705Z,39.50
2023-02-08T04:40:19.023Z,42.93
2023-02-08T04:42:46.704Z,39.77
2023-02-08T04:45:14.366Z,42.60
2023-02-08T04:47:42.402Z,40.03
2023-02-08T04:50:10.433Z,39.73
2023-02-08T04:52:38.085Z,43.93
2023-02-08T04:55:06.427Z,41.30
2023-02-08T04:57:35.814Z,43.67
2023-02-08T05:00:03.600Z,43.07
2023-02-08T05:02:31.282Z,40.13
2023-02-08T05:04:58.947Z,40.63
2023-02-08T05:07:26.629Z,41.63
2023-02-08T05:09:54.641Z,45.90
2023-02-08T05:12:22.728Z,40.40
2023-02-08T05:14:51.719Z,41.03
2023-02-08T05:17:19.418Z,39.50
2023-02-08T05:19:47.077Z,38.40
2023-02-08T05:22:15.324Z,44.25
2023-02-08T05:24:43.101Z,40.70
2023-02-08T05:27:10.907Z,43.77
2023-02-08T05:29:38.666Z,43.73
2023-02-08T05:32:08.086Z,43.13
2023-02-08T05:34:35.912Z,40.20
2023-02-08T05:37:03.586Z,41.40
2023-02-08T05:39:31.290Z,43.20
2023-02-08T05:41:59.316Z,41.37
2023-02-08T05:44:27.012Z,45.47
2023-02-08T05:46:54.746Z,46.40
2023-02-08T05:49:23.864Z,42.87
2023-02-08T05:51:51.645Z,45.37
2023-02-08T05:54:19.440Z,49.00
2023-02-08T05:56:47.565Z,47.07
2023-02-08T05:59:15.257Z,48.33
2023-02-08T06:01:42.985Z,47.30
2023-02-08T06:04:10.862Z,47.00
2023-02-08T06:06:40.072Z,48.00
2023-02-08T06:09:07.793Z,49.40
2023-02-08T06:11:36.101Z,49.67
2023-02-08T06:14:03.984Z,53.40
2023-02-08T06:16:31.968Z,52.63
2023-02-08T06:18:59.742Z,49.97
2023-02-08T06:21:28.174Z,49.07
2023-02-08T06:23:57.473Z,54.47
2023-02-08T06:26:25.214Z,54.33
2023-02-08T06:28:52.981Z,47.63
2023-02-08T06:31:21.175Z,57.83
2023-02-08T06:33:49.347Z,50.83
2023-02-08T06:36:17.077Z,51.43
2023-02-08T06:38:44.878Z,53.33
2023-02-08T06:41:13.987Z,58.10
2023-02-08T06:43:41.630Z,55.53
2023-02-08T06:46:09.507Z,52.57
2023-02-08T06:48:37.585Z,54.00
2023-02-08T06:51:05.698Z,52.47
2023-02-08T06:53:33.412Z,50.70
2023-02-08T06:56:01.186Z,53.20
2023-02-08T06:58:30.211Z,53.80
2023-02-08T07:00:58.379Z,54.17
2023-02-08T07:03:26.070Z,52.17
2023-02-08T07:06:04.512Z,54.10
2023-02-08T07:08:34.600Z,53.07
2023-02-08T07:11:07.861Z,50.27
2023-02-08T07:13:37.132Z,58.33
2023-02-08T07:16:05.477Z,56.80
2023-02-08T07:18:33.595Z,59.83
2023-02-08T07:21:01.674Z,54.13
2023-02-08T07:23:29.517Z,51.90
2023-02-08T07:25:58.584Z,54.50
2023-02-08T07:28:26.415Z,52.97
2023-02-08T07:30:55.765Z,56.40
2023-02-08T07:33:25.034Z,54.57
2023-02-08T07:35:53.063Z,52.53
2023-02-08T07:38:21.059Z,51.43
2023-02-08T07:40:49.144Z,52.30
2023-02-08T07:43:16.995Z,57.80
2023-02-08T07:45:55.956Z,54.83
2023-02-08T07:48:23.789Z,52.30
2023-02-08T07:50:51.890Z,53.80
2023-02-08T07:53:20.189Z,55.57
2023-02-08T07:55:47.878Z,52.47
2023-02-08T07:58:16.068Z,49.47
2023-02-08T08:00:43.788Z,55.93
2023-02-08T08:03:13.586Z,54.10
2023-02-08T08:05:41.745Z,53.93
2023-02-08T08:08:09.638Z,51.57
2023-02-08T08:10:38.209Z,59.60
2023-02-08T08:13:06.730Z,52.03
2023-02-08T08:15:34.532Z,49.60
2023-02-08T08:18:02.250Z,48.30
2023-02-08T08:20:31.321Z,52.03
2023-02-08T08:22:59.076Z,51.40
2023-02-08T08:25:28.071Z,57.77
2023-02-08T08:27:56.834Z,55.33
2023-02-08T08:30:24.721Z,54.13
2023-02-08T08:32:52.613Z,53.10
2023-02-08T08:35:21.026Z,55.33
2023-02-08T08:37:50.176Z,50.83
2023-02-08T08:40:18.052Z,56.07
2023-02-08T08:42:45.719Z,54.33
2023-02-08T08:45:13.427Z,52.93
2023-02-08T08:47:41.171Z,51.00
2023-02-08T08:50:09.595Z,50.83
2023-02-08T08:52:37.643Z,55.27
2023-02-08T08:55:07.465Z,51.93
2023-02-08T08:57:35.370Z,55.17
2023-02-08T09:00:03.693Z,52.43
2023-02-08T09:02:31.832Z,54.60
2023-02-08T09:05:00.329Z,52.10
2023-02-08T09:07:28.034Z,53.47
2023-02-08T09:09:55.681Z,52.80
2023-02-08T09:12:24.753Z,44.50
2023-02-08T09:14:52.388Z,49.83
2023-02-08T09:17:20.217Z,51.77
2023-02-08T09:19:48.206Z,48.63
2023-02-08T09:22:15.921Z,55.57
2023-02-08T09:24:43.647Z,48.83
2023-02-08T09:27:11.680Z,45.57
2023-02-08T09:29:40.731Z,46.87
2023-02-08T09:32:10.191Z,48.80
2023-02-08T09:34:38.480Z,43.33
2023-02-08T09:37:07.167Z,46.37
2023-02-08T09:39:35.959Z,41.70
2023-02-08T09:42:26.538Z,45.77
2023-02-08T09:45:06.174Z,39.83
2023-02-08T09:47:36.221Z,42.47
2023-02-08T09:50:06.652Z,47.17
2023-02-08T09:52:37.825Z,41.47
2023-02-08T09:55:17.496Z,38.30
2023-02-08T09:57:46.241Z,37.53
2023-02-08T10:00:18.001Z,37.25
2023-02-08T10:02:46.036Z,33.30
2023-02-08T10:05:16.370Z,31.75
2023-02-08T10:07:44.327Z,34.38
2023-02-08T10:10:15.708Z,36.03
2023-02-08T10:12:48.856Z,34.00
2023-02-08T10:15:26.852Z,36.50
2023-02-08T10:18:18.482Z,32.47
2023-02-08T10:20:53.797Z,26.80
2023-02-08T10:23:32.600Z,31.70
2023-02-08T10:26:08.686Z,31.63
2023-02-08T10:28:50.803Z,28.70
2023-02-08T10:31:30.128Z,27.10
2023-02-08T10:34:02.411Z,26.83
2023-02-08T10:36:33.217Z,31.67
2023-02-08T10:39:02.476Z,30.13
2023-02-08T10:41:33.760Z,26.38
2023-02-08T10:44:06.506Z,30.30
2023-02-08T10:46:41.345Z,28.25
2023-02-08T10:49:13.478Z,26.80
2023-02-08T10:51:41.263Z,24.88
2023-02-08T10:54:11.523Z,25.25
2023-02-08T10:56:47.505Z,23.45
2023-02-08T10:59:19.873Z,24.40
2023-02-08T11:01:49.837Z,22.92
2023-02-08T11:04:18.581Z,25.48
2023-02-08T11:06:49.111Z,24.27
2023-02-08T11:09:22.758Z,25.50
2023-02-08T11:11:52.523Z,22.70
2023-02-08T11:14:21.569Z,20.83
2023-02-08T11:16:54.872Z,20.60
2023-02-08T11:19:29.010Z,20.30
2023-02-08T11:21:57.109Z,19.05
2023-02-08T11:24:29.154Z,22.63
2023-02-08T11:26:57.553Z,18.73
2023-02-08T11:29:26.715Z,19.73
2023-02-08T11:32:01.227Z,21.40
2023-02-08T11:34:30.637Z,21.08
2023-02-08T11:36:59.216Z,22.13
2023-02-08T11:39:29.229Z,23.08
2023-02-08T11:41:59.659Z,19.00
2023-02-08T11:44:29.625Z,21.27
2023-02-08T11:47:00.975Z,17.25
2023-02-08T11:49:33.362Z,17.67
2023-02-08T11:52:01.086Z,15.25
2023-02-08T11:54:41.245Z,19.35
2023-02-08T11:57:14.776Z,18.80
2023-02-08T11:59:43.215Z,18.65
2023-02-08T12:02:37.294Z,16.75
2023-02-08T12:05:06.172Z,16.08
2023-02-08T12:07:42.207Z,18.27
2023-02-08T12:10:27.764Z,16.20
2023-02-08T12:13:25.268Z,14.85
2023-02-08T12:16:00.564Z,16.17
2023-02-08T12:18:40.085Z,15.57
2023-02-08T12:21:13.009Z,16.80
2023-02-08T12:23:48.741Z,13.88
2023-02-08T12:26:24.566Z,15.48
2023-02-08T12:29:03.026Z,21.38
2023-02-08T12:31:40.303Z,18.92
2023-02-08T12:34:16.355Z,18.02
2023-02-08T12:37:16.021Z,17.13
2023-02-08T12:40:05.651Z,16.00
2023-02-08T12:42:41.255Z,16.73
2023-02-08T12:45:29.947Z,18.70
2023-02-08T12:48:05.266Z,14.32
2023-02-08T12:50:41.811Z,16.67
2023-02-08T12:53:17.054Z,15.60
2023-02-08T12:55:46.148Z,18.20
2023-02-08T12:58:29.216Z,19.55
2023-02-08T13:00:58.913Z,20.95
2023-02-08T13:03:36.007Z,18.52
2023-02-08T13:06:08.294Z,17.85
2023-02-08T13:08:40.953Z,18.55
2023-02-08T13:11:19.740Z,17.27
2023-02-08T13:13:54.562Z,15.45
2023-02-08T13:16:25.223Z,17.05
2023-02-08T13:18:55.418Z,19.40
2023-02-08T13:21:26.700Z,17.90
2023-02-08T13:23:54.575Z,19.27
2023-02-08T13:26:26.254Z,16.90
2023-02-08T13:28:55.343Z,17.35
2023-02-08T13:31:25.404Z,17.73
2023-02-08T13:34:01.644Z,16.10
2023-02-08T13:36:33.277Z,15.35
2023-02-08T13:39:02.908Z,18.60
2023-02-08T13:41:31.450Z,16.42
2023-02-08T13:44:01.644Z,15.85
2023-02-08T13:46:30.476Z,15.98
2023-02-08T13:49:00.355Z,14.23
2023-02-08T13:52:03.271Z,15.13
2023-02-08T13:54:31.099Z,19.02
2023-02-08T13:56:59.215Z,16.83
2023-02-08T13:59:36.295Z,18.00
2023-02-08T14:02:28.581Z,16.15
2023-02-08T14:05:15.444Z,15.48
2023-02-08T14:07:45.887Z,17.30
2023-02-08T14:10:23.758Z,19.10
2023-02-08T14:12:57.526Z,15.52
2023-02-08T14:15:34.363Z,16.40
2023-02-08T14:18:02.620Z,15.07
2023-02-08T14:20:33.929Z,14.13
2023-02-08T14:23:04.780Z,12.27
2023-02-08T14:25:42.115Z,9.68
2023-02-08T14:28:24.793Z,13.40
2023-02-08T14:30:54.187Z,14.23
2023-02-08T14:33:24.220Z,13.50
2023-02-08T14:35:53.984Z,16.67
2023-02-08T14:38:51.618Z,15.00
2023-02-08T14:41:44.865Z,14.82
2023-02-08T14:44:55.156Z,13.82
2023-02-08T14:48:03.096Z,12.68
2023-02-08T14:50:43.050Z,15.18
2023-02-08T14:53:21.306Z,15.88
2023-02-08T14:55:53.743Z,15.57
2023-02-08T14:58:28.009Z,13.43
2023-02-08T15:01:01.418Z,15.68
2023-02-08T15:03:31.954Z,15.75
2023-02-08T15:06:09.309Z,12.18
2023-02-08T15:08:37.004Z,13.25
2023-02-08T15:11:06.072Z,12.38
2023-02-08T15:13:33.721Z,10.82
2023-02-08T15:16:01.552Z,12.93
2023-02-08T15:18:31.476Z,13.65
2023-02-08T15:21:05.059Z,11.35
2023-02-08T15:23:33.676Z,13.38
2023-02-08T15:26:03.001Z,11.27
2023-02-08T15:28:35.195Z,19.05
2023-02-08T15:31:05.108Z,13.20
2023-02-08T15:33:34.303Z,11.82
2023-02-08T15:36:05.923Z,14.88
2023-02-08T15:38:37.124Z,13.77
2023-02-08T15:41:07.343Z,13.07
2023-02-08T15:43:37.599Z,12.27
2023-02-08T15:46:07.193Z,11.65
2023-02-08T15:48:43.720Z,11.43
2023-02-08T15:51:14.330Z,15.10
2023-02-08T15:53:44.142Z,14.90
2023-02-08T15:56:26.878Z,13.32
2023-02-08T15:59:04.640Z,14.32
2023-02-08T16:01:32.962Z,18.13
2023-02-08T16:04:01.856Z,13.60
2023-02-08T16:06:31.907Z,13.95
2023-02-08T16:09:01.839Z,15.70
2023-02-08T16:11:31.629Z,16.20
2023-02-08T16:14:01.306Z,19.45
2023-02-08T16:16:40.107Z,17.30
2023-02-08T16:19:20.981Z,14.05
2023-02-08T16:21:48.609Z,16.80
2023-02-08T16:24:23.145Z,16.38
2023-02-08T16:26:58.755Z,16.50
2023-02-08T16:29:28.899Z,19.83
2023-02-08T16:32:13.483Z,17.05
2023-02-08T16:34:41.701Z,18.00
2023-02-08T16:37:22.268Z,17.00
2023-02-08T16:39:54.552Z,16.57
2023-02-08T16:42:35.688Z,20.25
2023-02-08T16:45:18.290Z,24.45
2023-02-08T16:47:50.679Z,21.25
2023-02-08T16:50:20.587Z,26.23
2023-02-08T16:52:51.065Z,21.00
2023-02-08T16:55:22.327Z,21.47
2023-02-08T16:57:54.448Z,23.03
2023-02-08T17:00:25.397Z,23.80
2023-02-08T17:02:55.153Z,20.23
2023-02-08T17:05:24.875Z,27.90
2023-02-08T17:07:52.740Z,26.40
2023-02-08T17:10:28.634Z,22.08
2023-02-08T17:13:09.919Z,19.63
2023-02-08T17:15:45.593Z,21.83
2023-02-08T17:18:15.290Z,23.80
2023-02-08T17:20:43.566Z,24.13
2023-02-08T17:23:11.861Z,17.70
2023-02-08T17:25:39.881Z,22.73
2023-02-08T17:28:09.683Z,19.57
2023-02-08T17:30:39.821Z,22.08
2023-02-08T17:33:08.136Z,20.60
2023-02-08T17:35:38.237Z,33.60
2023-02-08T17:38:06.604Z,22.33
2023-02-08T17:40:37.163Z,18.63
2023-02-08T17:43:06.267Z,21.13
2023-02-08T17:45:38.255Z,19.83
2023-02-08T17:48:06.543Z,23.33
2023-02-08T17:50:34.389Z,18.60
2023-02-08T17:53:04.393Z,19.73
2023-02-08T17:55:32.567Z,20.17
2023-02-08T17:58:00.663Z,19.23
2023-02-08T18:00:28.300Z,19.73
2023-02-08T18:02:57.329Z,20.43
2023-02-08T18:05:27.996Z,23.23
2023-02-08T18:07:57.329Z,20.70
2023-02-08T18:10:28.133Z,20.03
2023-02-08T18:12:56.026Z,26.40
2023-02-08T18:15:24.129Z,18.20
2023-02-08T18:17:51.885Z,20.17
2023-02-08T18:20:19.832Z,19.13
2023-02-08T18:22:47.498Z,31.33
2023-02-08T18:25:15.932Z,28.33
2023-02-08T18:27:45.005Z,23.48
2023-02-08T18:30:13.573Z,22.23
2023-02-08T18:32:41.348Z,24.47
2023-02-08T18:35:09.522Z,28.77
2023-02-08T18:37:37.813Z,23.77
2023-02-08T18:40:06.165Z,26.57
2023-02-08T18:42:36.033Z,27.53
2023-02-08T18:45:06.136Z,29.43
2023-02-08T18:47:35.670Z,27.77
2023-02-08T18:50:03.466Z,27.73
2023-02-08T18:52:31.695Z,27.97
2023-02-08T18:54:59.698Z,28.50
2023-02-08T18:57:27.447Z,30.03
2023-02-08T18:59:55.834Z,31.37
2023-02-08T19:02:26.214Z,29.27
2023-02-08T19:04:54.022Z,27.53
2023-02-08T19:07:21.850Z,33.50
2023-02-08T19:09:49.596Z,33.00
2023-02-08T19:12:19.057Z,32.27
2023-02-08T19:14:50.563Z,34.27
2023-02-08T19:17:18.440Z,32.60
2023-02-08T19:19:47.703Z,32.57
2023-02-08T19:22:15.485Z,35.33
2023-02-08T19:24:43.963Z,35.50
2023-02-08T19:27:11.648Z,33.77
2023-02-08T19:29:39.404Z,37.13
2023-02-08T19:32:08.151Z,37.17
2023-02-08T19:34:36.119Z,34.40
2023-02-08T19:37:05.356Z,33.93
2023-02-08T19:39:33.093Z,34.80
2023-02-08T19:42:00.755Z,35.50
2023-02-08T19:44:30.585Z,38.90
2023-02-08T19:46:58.380Z,36.33
2023-02-08T19:49:28.175Z,34.97
2023-02-08T19:51:56.601Z,37.53
2023-02-08T19:54:25.833Z,33.60
2023-02-08T19:56:54.583Z,35.77
2023-02-08T19:59:24.413Z,39.40
2023-02-08T20:01:52.286Z,36.17
2023-02-08T20:04:20.475Z,36.80
2023-02-08T20:06:51.559Z,33.93
2023-02-08T20:09:19.214Z,37.27
2023-02-08T20:11:56.866Z,38.30
2023-02-08T20:14:25.283Z,33.57
2023-02-08T20:16:53.322Z,38.87
2023-02-08T20:19:21.168Z,39.40
2023-02-08T20:21:48.810Z,37.13
2023-02-08T20:24:16.786Z,39.27
2023-02-08T20:26:46.399Z,42.33
2023-02-08T20:29:15.911Z,42.00
2023-02-08T20:31:46.541Z,39.83
2023-02-08T20:34:15.309Z,37.67
2023-02-08T20:36:49.665Z,39.63
2023-02-08T20:39:22.504Z,38.17
2023-02-08T20:41:50.692Z,41.50
2023-02-08T20:44:20.578Z,36.80
2023-02-08T20:46:48.318Z,40.33
2023-02-08T20:49:21.894Z,37.97
2023-02-08T20:51:52.223Z,40.83
2023-02-08T20:54:20.214Z,36.87
2023-02-08T20:56:47.853Z,41.70
2023-02-08T20:59:16.317Z,38.63
2023-02-08T21:01:46.378Z,44.20
2023-02-08T21:04:14.486Z,38.00
2023-02-08T21:06:44.569Z,38.50
2023-02-08T21:09:14.775Z,37.90
2023-02-08T21:11:42.967Z,42.33
2023-02-08T21:14:15.321Z,40.33
2023-02-08T21:16:43.110Z,41.40
2023-02-08T21:19:12.974Z,46.17
2023-02-08T21:21:40.696Z,42.17
2023-02-08T21:24:09.344Z,44.67
2023-02-08T21:26:37.011Z,38.37
2023-02-08T21:29:06.420Z,42.27
2023-02-08T21:31:36.361Z,42.87
2023-02-08T21:34:04.817Z,40.50
2023-02-08T21:36:34.275Z,41.40
2023-02-08T21:39:02.026Z,44.33
2023-02-08T21:41:32.165Z,41.00
2023-02-08T21:44:02.244Z,43.37
2023-02-08T21:46:30.203Z,45.43
2023-02-08T21:49:16.532Z,43.57
2023-02-08T21:52:03.888Z,38.87
2023-02-08T21:54:43.985Z,39.23
2023-02-08T21:57:14.589Z,44.30
2023-02-08T21:59:42.926Z,37.37
2023-02-08T22:02:14.437Z,41.20
2023-02-08T22:04:46.970Z,41.73
2023-02-08T22:07:16.348Z,44.47
2023-02-08T22:09:44.378Z,40.70
2023-02-08T22:12:16.397Z,43.87
2023-02-08T22:14:44.319Z,40.77
2023-02-08T22:17:12.037Z,44.47
2023-02-08T22:19:40.404Z,41.80
2023-02-08T22:22:08.731Z,43.27
2023-02-08T22:24:37.999Z,44.43
2023-02-08T22:27:05.799Z,44.53
2023-02-08T22:29:33.966Z,43.50
2023-02-08T22:32:02.049Z,45.77
2023-02-08T22:34:29.939Z,43.50
2023-02-08T22:36:58.120Z,43.57
2023-02-08T22:39:25.833Z,41.90
2023-02-08T22:41:55.251Z,44.77
2023-02-08T22:44:22.906Z,43.87
2023-02-08T22:46:50.644Z,44.03
2023-02-08T22:49:19.322Z,48.40
2023-02-08T22:51:47.379Z,45.20
2023-02-08T22:54:15.101Z,47.40
2023-02-08T22:56:43.047Z,49.93
2023-02-08T22:59:12.142Z,44.30
2023-02-08T23:01:39.974Z,48.30
2023-02-08T23:04:07.659Z,46.37
2023-02-08T23:06:35.787Z,51.00
2023-02-08T23:09:04.874Z,47.90
2023-02-08T23:11:32.951Z,46.77
2023-02-08T23:14:00.722Z,53.03
2023-02-08T23:16:29.889Z,48.83
2023-02-08T23:18:58.222Z,49.67
2023-02-08T23:21:25.979Z,46.50
2023-02-08T23:23:53.742Z,48.00
2023-02-08T23:26:22.313Z,49.67
2023-02-08T23:28:51.112Z,51.83
2023-02-08T23:31:19.227Z,45.70
2023-02-08T23:33:48.588Z,47.13
2023-02-08T23:36:19.192Z,47.57
2023-02-08T23:38:47.299Z,46.63
2023-02-08T23:41:17.070Z,53.23
2023-02-08T23:43:45.041Z,46.53
2023-02-08T23:46:15.919Z,49.53
2023-02-08T23:48:44.108Z,49.60
2023-02-08T23:51:13.152Z,50.57
2023-02-08T23:53:41.310Z,48.20
2023-02-08T23:56:14.618Z,52.30
2023-02-08T23:58:42.641Z,52.40
